sensor_id;sensor_type;location;lat;lon;timestamp;P1;durP1;ratioP1;P2;durP2;ratioP2
64550;SDS011;50945;44.472;-123.352;2023-03-01T00:02:14;0.00;;;0.00;;
64550;SDS011;50945;44.472;-123.352;2023-03-01T00:04:40;0.00;;;0.00;;
64550;SDS011;50945;44.472;-123.352;2023-03-01T00:07:07;0.30;;;0.10;;
64550;SDS011;50945;44.472;-123.352;2023-03-01T00:09:33;0.88;;;0.00;;
64550;SDS011;50945;44.472;-123.352;2023-03-01T00:12:01;0.00;;;0.00;;
64550;SDS011;50945;44.472;-123.352;2023-03-01T00:14:27;0.00;;;0.00;;
64550;SDS011;50945;44.472;-123.352;2023-03-01T00:16:53;1.17;;;0.10;;
64550;SDS011;50945;44.472;-123.352;2023-03-01T00:19:20;0.20;;;0.00;;
64550;SDS011;50945;44.472;-123.352;2023-03-01T00:21:47;0.00;;;0.00;;
64550;SDS011;50945;44.472;-123.352;2023-03-01T00:24:14;1.08;;;0.20;;
64550;SDS011;50945;44.472;-123.352;2023-03-01T00:26:40;0.00;;;0.00;;
64550;SDS011;50945;44.472;-123.352;2023-03-01T00:29:06;0.00;;;0.00;;
64550;SDS011;50945;44.472;-123.352;2023-03-01T00:31:33;0.00;;;0.00;;
64550;SDS011;50945;44.472;-123.352;2023-03-01T00:34:01;0.00;;;0.00;;
64550;SDS011;50945;44.472;-123.352;2023-03-01T00:36:30;0.00;;;0.00;;
64550;SDS011;50945;44.472;-123.352;2023-03-01T00:39:00;0.00;;;0.00;;
64550;SDS011;50945;44.472;-123.352;2023-03-01T00:41:26;0.00;;;0.00;;
64550;SDS011;50945;44.472;-123.352;2023-03-01T00:43:53;0.00;;;0.00;;
64550;SDS011;50945;44.472;-123.352;2023-03-01T00:46:21;0.00;;;0.00;;
64550;SDS011;50945;44.472;-123.352;2023-03-01T00:48:49;0.00;;;0.00;;
64550;SDS011;50945;44.472;-123.352;2023-03-01T00:51:17;0.10;;;0.10;;
64550;SDS011;50945;44.472;-123.352;2023-03-01T00:53:45;0.00;;;0.00;;
64550;SDS011;50945;44.472;-123.352;2023-03-01T00:56:13;0.00;;;0.00;;
64550;SDS011;50945;44.472;-123.352;2023-03-01T00:58:40;0.10;;;0.05;;
64550;SDS011;50945;44.472;-123.352;2023-03-01T01:01:11;0.30;;;0.10;;
64550;SDS011;50945;44.472;-123.352;2023-03-01T01:03:44;0.00;;;0.00;;
64550;SDS011;50945;44.472;-123.352;2023-03-01T01:06:19;0.00;;;0.00;;
64550;SDS011;50945;44.472;-123.352;2023-03-01T01:08:48;0.20;;;0.00;;
64550;SDS011;50945;44.472;-123.352;2023-03-01T01:11:15;0.00;;;0.00;;
64550;SDS011;50945;44.472;-123.352;2023-03-01T01:13:43;0.00;;;0.00;;
64550;SDS011;50945;44.472;-123.352;2023-03-01T01:16:12;0.40;;;0.10;;
64550;SDS011;50945;44.472;-123.352;2023-03-01T01:18:41;0.05;;;0.05;;
64550;SDS011;50945;44.472;-123.352;2023-03-01T01:21:11;0.00;;;0.00;;
64550;SDS011;50945;44.472;-123.352;2023-03-01T01:23:40;0.65;;;0.10;;
64550;SDS011;50945;44.472;-123.352;2023-03-01T01:26:08;0.57;;;0.03;;
64550;SDS011;50945;44.472;-123.352;2023-03-01T01:28:37;0.10;;;0.10;;
64550;SDS011;50945;44.472;-123.352;2023-03-01T01:31:03;0.17;;;0.10;;
64550;SDS011;50945;44.472;-123.352;2023-03-01T01:33:31;0.10;;;0.10;;
64550;SDS011;50945;44.472;-123.352;2023-03-01T01:35:57;0.00;;;0.00;;
64550;SDS011;50945;44.472;-123.352;2023-03-01T01:38:24;0.03;;;0.00;;
64550;SDS011;50945;44.472;-123.352;2023-03-01T01:40:50;0.13;;;0.10;;
64550;SDS011;50945;44.472;-123.352;2023-03-01T01:43:27;0.20;;;0.20;;
64550;SDS011;50945;44.472;-123.352;2023-03-01T01:46:01;0.13;;;0.13;;
64550;SDS011;50945;44.472;-123.352;2023-03-01T01:48:41;0.30;;;0.20;;
64550;SDS011;50945;44.472;-123.352;2023-03-01T01:51:17;0.10;;;0.10;;
64550;SDS011;50945;44.472;-123.352;2023-03-01T01:53:48;1.08;;;0.43;;
64550;SDS011;50945;44.472;-123.352;2023-03-01T01:56:18;0.10;;;0.10;;
64550;SDS011;50945;44.472;-123.352;2023-03-01T01:58:46;0.17;;;0.00;;
64550;SDS011;50945;44.472;-123.352;2023-03-01T02:03:39;0.00;;;0.00;;
64550;SDS011;50945;44.472;-123.352;2023-03-01T02:08:38;0.00;;;0.00;;
64550;SDS011;50945;44.472;-123.352;2023-03-01T02:11:08;0.10;;;0.03;;
64550;SDS011;50945;44.472;-123.352;2023-03-01T02:13:38;0.10;;;0.10;;
64550;SDS011;50945;44.472;-123.352;2023-03-01T02:16:14;0.00;;;0.00;;
64550;SDS011;50945;44.472;-123.352;2023-03-01T02:18:41;1.05;;;0.10;;
64550;SDS011;50945;44.472;-123.352;2023-03-01T02:23:46;0.20;;;0.20;;
64550;SDS011;50945;44.472;-123.352;2023-03-01T02:28:58;0.10;;;0.10;;
64550;SDS011;50945;44.472;-123.352;2023-03-01T02:31:25;0.22;;;0.17;;
64550;SDS011;50945;44.472;-123.352;2023-03-01T02:34:20;0.10;;;0.10;;
64550;SDS011;50945;44.472;-123.352;2023-03-01T02:39:28;0.17;;;0.17;;
64550;SDS011;50945;44.472;-123.352;2023-03-01T02:42:09;0.90;;;0.28;;
64550;SDS011;50945;44.472;-123.352;2023-03-01T02:44:38;2.38;;;0.30;;
64550;SDS011;50945;44.472;-123.352;2023-03-01T02:47:04;0.50;;;0.43;;
64550;SDS011;50945;44.472;-123.352;2023-03-01T02:49:32;0.55;;;0.20;;
64550;SDS011;50945;44.472;-123.352;2023-03-01T02:57:30;0.75;;;0.20;;
64550;SDS011;50945;44.472;-123.352;2023-03-01T02:59:59;0.20;;;0.15;;
64550;SDS011;50945;44.472;-123.352;2023-03-01T03:02:32;0.75;;;0.20;;
64550;SDS011;50945;44.472;-123.352;2023-03-01T03:05:03;0.70;;;0.30;;
64550;SDS011;50945;44.472;-123.352;2023-03-01T03:07:34;1.30;;;0.52;;
64550;SDS011;50945;44.472;-123.352;2023-03-01T03:10:06;0.30;;;0.30;;
64550;SDS011;50945;44.472;-123.352;2023-03-01T03:12:38;0.50;;;0.50;;
64550;SDS011;50945;44.472;-123.352;2023-03-01T03:15:05;0.70;;;0.70;;
64550;SDS011;50945;44.472;-123.352;2023-03-01T03:17:37;0.55;;;0.55;;
64550;SDS011;50945;44.472;-123.352;2023-03-01T03:20:06;0.68;;;0.68;;
64550;SDS011;50945;44.472;-123.352;2023-03-01T03:22:44;0.30;;;0.30;;
64550;SDS011;50945;44.472;-123.352;2023-03-01T03:25:12;0.63;;;0.45;;
64550;SDS011;50945;44.472;-123.352;2023-03-01T03:27:43;0.55;;;0.20;;
64550;SDS011;50945;44.472;-123.352;2023-03-01T03:30:12;0.95;;;0.40;;
64550;SDS011;50945;44.472;-123.352;2023-03-01T03:32:42;0.65;;;0.38;;
64550;SDS011;50945;44.472;-123.352;2023-03-01T03:35:20;1.30;;;0.50;;
64550;SDS011;50945;44.472;-123.352;2023-03-01T03:37:50;1.27;;;0.55;;
64550;SDS011;50945;44.472;-123.352;2023-03-01T03:43:06;1.08;;;0.98;;
64550;SDS011;50945;44.472;-123.352;2023-03-01T03:48:04;1.73;;;1.02;;
64550;SDS011;50945;44.472;-123.352;2023-03-01T03:50:32;1.00;;;0.70;;
64550;SDS011;50945;44.472;-123.352;2023-03-01T03:53:03;1.40;;;1.10;;
64550;SDS011;50945;44.472;-123.352;2023-03-01T03:55:34;0.95;;;0.55;;
64550;SDS011;50945;44.472;-123.352;2023-03-01T03:58:04;2.28;;;0.70;;
64550;SDS011;50945;44.472;-123.352;2023-03-01T04:00:38;1.25;;;0.50;;
64550;SDS011;50945;44.472;-123.352;2023-03-01T04:03:11;1.02;;;0.98;;
64550;SDS011;50945;44.472;-123.352;2023-03-01T04:05:41;0.55;;;0.45;;
64550;SDS011;50945;44.472;-123.352;2023-03-01T04:08:08;0.75;;;0.52;;
64550;SDS011;50945;44.472;-123.352;2023-03-01T04:10:37;1.63;;;0.28;;
64550;SDS011;50945;44.472;-123.352;2023-03-01T04:13:04;1.08;;;0.57;;
64550;SDS011;50945;44.472;-123.352;2023-03-01T04:15:32;1.10;;;0.55;;
64550;SDS011;50945;44.472;-123.352;2023-03-01T04:17:59;1.27;;;0.30;;
64550;SDS011;50945;44.472;-123.352;2023-03-01T04:20:30;2.47;;;0.60;;
64550;SDS011;50945;44.472;-123.352;2023-03-01T04:23:10;1.10;;;0.70;;
64550;SDS011;50945;44.472;-123.352;2023-03-01T04:25:51;1.05;;;0.45;;
64550;SDS011;50945;44.472;-123.352;2023-03-01T04:28:20;0.50;;;0.50;;
64550;SDS011;50945;44.472;-123.352;2023-03-01T04:30:50;1.38;;;0.50;;
64550;SDS011;50945;44.472;-123.352;2023-03-01T04:33:17;0.65;;;0.60;;
64550;SDS011;50945;44.472;-123.352;2023-03-01T04:35:45;0.98;;;0.80;;
64550;SDS011;50945;44.472;-123.352;2023-03-01T04:38:15;0.20;;;0.20;;
64550;SDS011;50945;44.472;-123.352;2023-03-01T04:40:42;0.70;;;0.70;;
64550;SDS011;50945;44.472;-123.352;2023-03-01T04:43:09;1.00;;;0.70;;
64550;SDS011;50945;44.472;-123.352;2023-03-01T04:45:36;1.35;;;0.80;;
64550;SDS011;50945;44.472;-123.352;2023-03-01T04:48:03;2.13;;;0.65;;
64550;SDS011;50945;44.472;-123.352;2023-03-01T04:50:30;1.98;;;1.17;;
64550;SDS011;50945;44.472;-123.352;2023-03-01T04:52:57;0.95;;;0.50;;
64550;SDS011;50945;44.472;-123.352;2023-03-01T04:55:26;1.83;;;0.70;;
64550;SDS011;50945;44.472;-123.352;2023-03-01T04:57:56;3.05;;;0.88;;
64550;SDS011;50945;44.472;-123.352;2023-03-01T05:00:24;1.35;;;0.70;;
64550;SDS011;50945;44.472;-123.352;2023-03-01T05:02:55;0.90;;;0.35;;
64550;SDS011;50945;44.472;-123.352;2023-03-01T05:07:54;0.35;;;0.35;;
64550;SDS011;50945;44.472;-123.352;2023-03-01T05:10:24;0.57;;;0.55;;
64550;SDS011;50945;44.472;-123.352;2023-03-01T05:12:52;1.45;;;0.85;;
64550;SDS011;50945;44.472;-123.352;2023-03-01T05:15:18;1.75;;;0.93;;
64550;SDS011;50945;44.472;-123.352;2023-03-01T05:17:47;0.43;;;0.43;;
64550;SDS011;50945;44.472;-123.352;2023-03-01T05:20:15;2.00;;;0.65;;
64550;SDS011;50945;44.472;-123.352;2023-03-01T05:22:41;0.30;;;0.30;;
64550;SDS011;50945;44.472;-123.352;2023-03-01T05:25:08;0.50;;;0.50;;
64550;SDS011;50945;44.472;-123.352;2023-03-01T05:27:34;2.15;;;0.60;;
64550;SDS011;50945;44.472;-123.352;2023-03-01T05:32:39;1.52;;;0.80;;
64550;SDS011;50945;44.472;-123.352;2023-03-01T05:35:08;1.70;;;1.15;;
64550;SDS011;50945;44.472;-123.352;2023-03-01T05:37:41;4.85;;;2.17;;
64550;SDS011;50945;44.472;-123.352;2023-03-01T05:40:09;1.75;;;1.63;;
64550;SDS011;50945;44.472;-123.352;2023-03-01T05:42:42;0.95;;;0.85;;
64550;SDS011;50945;44.472;-123.352;2023-03-01T05:45:09;0.90;;;0.73;;
64550;SDS011;50945;44.472;-123.352;2023-03-01T05:47:38;1.17;;;0.80;;
64550;SDS011;50945;44.472;-123.352;2023-03-01T05:53:02;1.02;;;0.93;;
64550;SDS011;50945;44.472;-123.352;2023-03-01T05:55:33;1.45;;;0.70;;
64550;SDS011;50945;44.472;-123.352;2023-03-01T05:58:01;0.38;;;0.38;;
64550;SDS011;50945;44.472;-123.352;2023-03-01T06:00:30;1.52;;;0.70;;
64550;SDS011;50945;44.472;-123.352;2023-03-01T06:02:57;0.75;;;0.75;;
64550;SDS011;50945;44.472;-123.352;2023-03-01T06:05:25;1.38;;;0.80;;
64550;SDS011;50945;44.472;-123.352;2023-03-01T06:07:52;5.43;;;1.27;;
64550;SDS011;50945;44.472;-123.352;2023-03-01T06:10:19;2.63;;;1.38;;
64550;SDS011;50945;44.472;-123.352;2023-03-01T06:12:47;0.98;;;0.98;;
64550;SDS011;50945;44.472;-123.352;2023-03-01T06:15:15;1.42;;;0.90;;
64550;SDS011;50945;44.472;-123.352;2023-03-01T06:17:43;1.02;;;0.90;;
64550;SDS011;50945;44.472;-123.352;2023-03-01T06:20:12;1.00;;;0.90;;
64550;SDS011;50945;44.472;-123.352;2023-03-01T06:22:43;1.52;;;0.88;;
64550;SDS011;50945;44.472;-123.352;2023-03-01T06:25:11;4.90;;;1.10;;
64550;SDS011;50945;44.472;-123.352;2023-03-01T06:27:38;1.23;;;0.77;;
64550;SDS011;50945;44.472;-123.352;2023-03-01T06:30:05;1.98;;;0.98;;
64550;SDS011;50945;44.472;-123.352;2023-03-01T06:32:33;2.63;;;0.85;;
64550;SDS011;50945;44.472;-123.352;2023-03-01T06:34:59;2.20;;;1.30;;
64550;SDS011;50945;44.472;-123.352;2023-03-01T06:37:28;2.72;;;1.15;;
64550;SDS011;50945;44.472;-123.352;2023-03-01T06:39:55;2.08;;;1.30;;
64550;SDS011;50945;44.472;-123.352;2023-03-01T06:42:21;3.70;;;1.67;;
64550;SDS011;50945;44.472;-123.352;2023-03-01T06:44:48;1.42;;;0.93;;
64550;SDS011;50945;44.472;-123.352;2023-03-01T06:47:14;1.95;;;1.40;;
64550;SDS011;50945;44.472;-123.352;2023-03-01T06:49:40;1.92;;;1.55;;
64550;SDS011;50945;44.472;-123.352;2023-03-01T06:52:07;2.78;;;1.92;;
64550;SDS011;50945;44.472;-123.352;2023-03-01T06:54:33;1.75;;;1.27;;
64550;SDS011;50945;44.472;-123.352;2023-03-01T06:57:00;1.80;;;0.85;;
64550;SDS011;50945;44.472;-123.352;2023-03-01T06:59:26;1.20;;;1.02;;
64550;SDS011;50945;44.472;-123.352;2023-03-01T07:01:52;2.65;;;1.50;;
64550;SDS011;50945;44.472;-123.352;2023-03-01T07:04:18;1.40;;;0.85;;
64550;SDS011;50945;44.472;-123.352;2023-03-01T07:06:45;1.80;;;1.30;;
64550;SDS011;50945;44.472;-123.352;2023-03-01T07:09:11;1.42;;;1.27;;
64550;SDS011;50945;44.472;-123.352;2023-03-01T07:11:37;1.85;;;1.00;;
64550;SDS011;50945;44.472;-123.352;2023-03-01T07:14:03;4.68;;;1.30;;
64550;SDS011;50945;44.472;-123.352;2023-03-01T07:16:31;0.90;;;0.77;;
64550;SDS011;50945;44.472;-123.352;2023-03-01T07:18:57;1.77;;;1.02;;
64550;SDS011;50945;44.472;-123.352;2023-03-01T07:21:24;2.05;;;1.30;;
64550;SDS011;50945;44.472;-123.352;2023-03-01T07:23:50;1.58;;;1.42;;
64550;SDS011;50945;44.472;-123.352;2023-03-01T07:26:16;1.50;;;1.05;;
64550;SDS011;50945;44.472;-123.352;2023-03-01T07:28:43;2.92;;;1.23;;
64550;SDS011;50945;44.472;-123.352;2023-03-01T07:31:09;3.38;;;1.50;;
64550;SDS011;50945;44.472;-123.352;2023-03-01T07:33:35;1.30;;;0.82;;
64550;SDS011;50945;44.472;-123.352;2023-03-01T07:36:02;0.85;;;0.75;;
64550;SDS011;50945;44.472;-123.352;2023-03-01T07:38:30;2.00;;;1.17;;
64550;SDS011;50945;44.472;-123.352;2023-03-01T07:41:00;3.20;;;1.00;;
64550;SDS011;50945;44.472;-123.352;2023-03-01T07:43:28;1.35;;;0.60;;
64550;SDS011;50945;44.472;-123.352;2023-03-01T07:45:57;1.55;;;0.98;;
64550;SDS011;50945;44.472;-123.352;2023-03-01T07:48:25;1.02;;;0.85;;
64550;SDS011;50945;44.472;-123.352;2023-03-01T07:50:52;0.60;;;0.60;;
64550;SDS011;50945;44.472;-123.352;2023-03-01T07:53:18;1.17;;;1.00;;
64550;SDS011;50945;44.472;-123.352;2023-03-01T07:55:44;1.52;;;0.98;;
64550;SDS011;50945;44.472;-123.352;2023-03-01T07:58:11;2.60;;;1.02;;
64550;SDS011;50945;44.472;-123.352;2023-03-01T08:00:37;1.30;;;0.90;;
64550;SDS011;50945;44.472;-123.352;2023-03-01T08:03:03;1.52;;;1.10;;
64550;SDS011;50945;44.472;-123.352;2023-03-01T08:05:29;0.70;;;0.70;;
64550;SDS011;50945;44.472;-123.352;2023-03-01T08:07:56;2.00;;;0.90;;
64550;SDS011;50945;44.472;-123.352;2023-03-01T08:10:25;0.60;;;0.60;;
64550;SDS011;50945;44.472;-123.352;2023-03-01T08:12:52;0.65;;;0.52;;
64550;SDS011;50945;44.472;-123.352;2023-03-01T08:15:18;0.90;;;0.90;;
64550;SDS011;50945;44.472;-123.352;2023-03-01T08:17:44;1.35;;;0.68;;
64550;SDS011;50945;44.472;-123.352;2023-03-01T08:20:10;1.20;;;1.10;;
64550;SDS011;50945;44.472;-123.352;2023-03-01T08:22:37;2.25;;;0.77;;
64550;SDS011;50945;44.472;-123.352;2023-03-01T08:25:04;0.35;;;0.35;;
64550;SDS011;50945;44.472;-123.352;2023-03-01T08:27:30;0.68;;;0.68;;
64550;SDS011;50945;44.472;-123.352;2023-03-01T08:29:56;1.02;;;0.98;;
64550;SDS011;50945;44.472;-123.352;2023-03-01T08:32:23;0.65;;;0.50;;
64550;SDS011;50945;44.472;-123.352;2023-03-01T08:34:49;0.57;;;0.52;;
64550;SDS011;50945;44.472;-123.352;2023-03-01T08:37:15;1.70;;;0.82;;
64550;SDS011;50945;44.472;-123.352;2023-03-01T08:39:41;0.60;;;0.60;;
64550;SDS011;50945;44.472;-123.352;2023-03-01T08:42:08;0.65;;;0.60;;
64550;SDS011;50945;44.472;-123.352;2023-03-01T08:44:34;3.60;;;0.95;;
64550;SDS011;50945;44.472;-123.352;2023-03-01T08:47:00;2.47;;;0.75;;
64550;SDS011;50945;44.472;-123.352;2023-03-01T08:49:27;1.35;;;0.73;;
64550;SDS011;50945;44.472;-123.352;2023-03-01T08:51:53;1.42;;;1.05;;
64550;SDS011;50945;44.472;-123.352;2023-03-01T08:54:20;0.55;;;0.55;;
64550;SDS011;50945;44.472;-123.352;2023-03-01T08:56:47;0.85;;;0.70;;
64550;SDS011;50945;44.472;-123.352;2023-03-01T08:59:14;1.10;;;0.57;;
64550;SDS011;50945;44.472;-123.352;2023-03-01T09:01:42;0.60;;;0.60;;
64550;SDS011;50945;44.472;-123.352;2023-03-01T09:04:09;1.30;;;1.10;;
64550;SDS011;50945;44.472;-123.352;2023-03-01T09:09:03;1.05;;;0.55;;
64550;SDS011;50945;44.472;-123.352;2023-03-01T09:11:30;6.07;;;1.60;;
64550;SDS011;50945;44.472;-123.352;2023-03-01T09:13:57;3.97;;;2.10;;
64550;SDS011;50945;44.472;-123.352;2023-03-01T09:16:23;5.72;;;2.22;;
64550;SDS011;50945;44.472;-123.352;2023-03-01T09:18:50;4.45;;;2.45;;
64550;SDS011;50945;44.472;-123.352;2023-03-01T09:21:18;2.10;;;1.77;;
64550;SDS011;50945;44.472;-123.352;2023-03-01T09:23:46;1.35;;;1.25;;
64550;SDS011;50945;44.472;-123.352;2023-03-01T09:26:22;1.60;;;0.73;;
64550;SDS011;50945;44.472;-123.352;2023-03-01T09:28:50;1.55;;;0.85;;
64550;SDS011;50945;44.472;-123.352;2023-03-01T09:31:18;4.53;;;1.38;;
64550;SDS011;50945;44.472;-123.352;2023-03-01T09:33:47;1.92;;;1.33;;
64550;SDS011;50945;44.472;-123.352;2023-03-01T09:36:16;1.75;;;1.08;;
64550;SDS011;50945;44.472;-123.352;2023-03-01T09:38:47;3.08;;;0.80;;
64550;SDS011;50945;44.472;-123.352;2023-03-01T09:44:00;1.67;;;0.82;;
64550;SDS011;50945;44.472;-123.352;2023-03-01T09:46:36;0.68;;;0.60;;
64550;SDS011;50945;44.472;-123.352;2023-03-01T09:49:12;1.23;;;1.00;;
64550;SDS011;50945;44.472;-123.352;2023-03-01T09:51:54;1.10;;;1.10;;
64550;SDS011;50945;44.472;-123.352;2023-03-01T09:54:21;0.85;;;0.75;;
64550;SDS011;50945;44.472;-123.352;2023-03-01T09:56:59;1.30;;;0.75;;
64550;SDS011;50945;44.472;-123.352;2023-03-01T09:59:56;2.97;;;1.20;;
64550;SDS011;50945;44.472;-123.352;2023-03-01T10:08:38;0.88;;;0.60;;
64550;SDS011;50945;44.472;-123.352;2023-03-01T10:11:19;0.50;;;0.50;;
64550;SDS011;50945;44.472;-123.352;2023-03-01T10:17:00;1.05;;;1.05;;
64550;SDS011;50945;44.472;-123.352;2023-03-01T10:19:40;1.00;;;0.82;;
64550;SDS011;50945;44.472;-123.352;2023-03-01T10:22:21;0.85;;;0.50;;
64550;SDS011;50945;44.472;-123.352;2023-03-01T10:24:53;2.28;;;1.45;;
64550;SDS011;50945;44.472;-123.352;2023-03-01T10:27:23;0.60;;;0.60;;
64550;SDS011;50945;44.472;-123.352;2023-03-01T10:32:45;1.27;;;0.63;;
64550;SDS011;50945;44.472;-123.352;2023-03-01T10:35:25;2.10;;;1.10;;
64550;SDS011;50945;44.472;-123.352;2023-03-01T10:38:04;2.58;;;1.73;;
64550;SDS011;50945;44.472;-123.352;2023-03-01T10:40:31;3.20;;;1.30;;
64550;SDS011;50945;44.472;-123.352;2023-03-01T10:42:59;1.02;;;0.63;;
64550;SDS011;50945;44.472;-123.352;2023-03-01T10:48:42;1.08;;;0.90;;
64550;SDS011;50945;44.472;-123.352;2023-03-01T10:56:10;1.70;;;1.45;;
64550;SDS011;50945;44.472;-123.352;2023-03-01T10:58:58;1.98;;;1.23;;
64550;SDS011;50945;44.472;-123.352;2023-03-01T11:01:26;1.92;;;1.08;;
64550;SDS011;50945;44.472;-123.352;2023-03-01T11:06:39;1.17;;;1.05;;
64550;SDS011;50945;44.472;-123.352;2023-03-01T11:11:43;0.30;;;0.30;;
64550;SDS011;50945;44.472;-123.352;2023-03-01T11:16:45;2.15;;;0.98;;
64550;SDS011;50945;44.472;-123.352;2023-03-01T11:19:15;1.55;;;0.82;;
64550;SDS011;50945;44.472;-123.352;2023-03-01T11:21:47;1.40;;;1.13;;
64550;SDS011;50945;44.472;-123.352;2023-03-01T11:24:22;0.65;;;0.20;;
64550;SDS011;50945;44.472;-123.352;2023-03-01T11:26:54;1.25;;;0.50;;
64550;SDS011;50945;44.472;-123.352;2023-03-01T11:29:41;1.25;;;0.50;;
64550;SDS011;50945;44.472;-123.352;2023-03-01T11:32:13;0.50;;;0.50;;
64550;SDS011;50945;44.472;-123.352;2023-03-01T11:34:48;0.50;;;0.50;;
64550;SDS011;50945;44.472;-123.352;2023-03-01T11:40:05;1.10;;;0.80;;
64550;SDS011;50945;44.472;-123.352;2023-03-01T11:42:54;3.15;;;0.70;;
64550;SDS011;50945;44.472;-123.352;2023-03-01T11:51:46;2.40;;;0.60;;
64550;SDS011;50945;44.472;-123.352;2023-03-01T12:00:25;1.08;;;0.77;;
64550;SDS011;50945;44.472;-123.352;2023-03-01T12:06:01;0.93;;;0.57;;
64550;SDS011;50945;44.472;-123.352;2023-03-01T12:08:54;1.35;;;0.65;;
64550;SDS011;50945;44.472;-123.352;2023-03-01T12:14:17;1.10;;;0.65;;
64550;SDS011;50945;44.472;-123.352;2023-03-01T12:30:54;1.27;;;0.75;;
64550;SDS011;50945;44.472;-123.352;2023-03-01T12:50:53;0.55;;;0.50;;
64550;SDS011;50945;44.472;-123.352;2023-03-01T12:53:21;0.40;;;0.40;;
64550;SDS011;50945;44.472;-123.352;2023-03-01T12:55:53;0.40;;;0.40;;
64550;SDS011;50945;44.472;-123.352;2023-03-01T12:58:28;0.77;;;0.55;;
64550;SDS011;50945;44.472;-123.352;2023-03-01T13:01:21;0.60;;;0.35;;
64550;SDS011;50945;44.472;-123.352;2023-03-01T13:04:06;0.35;;;0.20;;
64550;SDS011;50945;44.472;-123.352;2023-03-01T13:09:14;0.95;;;0.80;;
64550;SDS011;50945;44.472;-123.352;2023-03-01T13:11:53;0.52;;;0.52;;
64550;SDS011;50945;44.472;-123.352;2023-03-01T13:16:46;1.05;;;0.68;;
64550;SDS011;50945;44.472;-123.352;2023-03-01T13:19:20;1.65;;;0.43;;
64550;SDS011;50945;44.472;-123.352;2023-03-01T13:21:57;0.88;;;0.50;;
64550;SDS011;50945;44.472;-123.352;2023-03-01T13:24:28;0.55;;;0.55;;
64550;SDS011;50945;44.472;-123.352;2023-03-01T13:29:46;0.73;;;0.73;;
64550;SDS011;50945;44.472;-123.352;2023-03-01T13:34:53;0.68;;;0.30;;
64550;SDS011;50945;44.472;-123.352;2023-03-01T13:37:40;0.45;;;0.45;;
64550;SDS011;50945;44.472;-123.352;2023-03-01T13:42:54;0.73;;;0.50;;
64550;SDS011;50945;44.472;-123.352;2023-03-01T13:48:01;1.38;;;0.45;;
64550;SDS011;50945;44.472;-123.352;2023-03-01T13:50:34;0.40;;;0.40;;
64550;SDS011;50945;44.472;-123.352;2023-03-01T13:53:09;0.52;;;0.52;;
64550;SDS011;50945;44.472;-123.352;2023-03-01T13:58:15;1.75;;;0.28;;
64550;SDS011;50945;44.472;-123.352;2023-03-01T14:01:05;0.80;;;0.47;;
64550;SDS011;50945;44.472;-123.352;2023-03-01T14:03:34;1.08;;;0.57;;
64550;SDS011;50945;44.472;-123.352;2023-03-01T14:06:08;0.20;;;0.20;;
64550;SDS011;50945;44.472;-123.352;2023-03-01T14:08:38;0.43;;;0.35;;
64550;SDS011;50945;44.472;-123.352;2023-03-01T14:19:25;0.80;;;0.50;;
64550;SDS011;50945;44.472;-123.352;2023-03-01T14:22:10;3.90;;;0.57;;
64550;SDS011;50945;44.472;-123.352;2023-03-01T14:25:35;1.23;;;0.68;;
64550;SDS011;50945;44.472;-123.352;2023-03-01T14:27:57;1.27;;;0.45;;
64550;SDS011;50945;44.472;-123.352;2023-03-01T14:30:31;0.35;;;0.35;;
64550;SDS011;50945;44.472;-123.352;2023-03-01T14:33:22;0.57;;;0.57;;
64550;SDS011;50945;44.472;-123.352;2023-03-01T14:36:25;1.05;;;0.50;;
64550;SDS011;50945;44.472;-123.352;2023-03-01T14:38:51;1.65;;;0.55;;
64550;SDS011;50945;44.472;-123.352;2023-03-01T14:48:58;1.95;;;1.15;;
64550;SDS011;50945;44.472;-123.352;2023-03-01T14:51:39;0.82;;;0.82;;
64550;SDS011;50945;44.472;-123.352;2023-03-01T14:54:21;1.58;;;1.05;;
64550;SDS011;50945;44.472;-123.352;2023-03-01T14:56:58;4.10;;;1.42;;
64550;SDS011;50945;44.472;-123.352;2023-03-01T14:59:26;2.08;;;1.10;;
64550;SDS011;50945;44.472;-123.352;2023-03-01T15:01:56;2.63;;;1.27;;
64550;SDS011;50945;44.472;-123.352;2023-03-01T15:04:23;0.98;;;0.98;;
64550;SDS011;50945;44.472;-123.352;2023-03-01T15:06:51;1.25;;;1.17;;
64550;SDS011;50945;44.472;-123.352;2023-03-01T15:09:21;0.95;;;0.93;;
64550;SDS011;50945;44.472;-123.352;2023-03-01T15:11:48;0.70;;;0.70;;
64550;SDS011;50945;44.472;-123.352;2023-03-01T15:14:27;3.13;;;0.52;;
64550;SDS011;50945;44.472;-123.352;2023-03-01T15:17:28;2.72;;;0.77;;
64550;SDS011;50945;44.472;-123.352;2023-03-01T15:20:00;0.85;;;0.40;;
64550;SDS011;50945;44.472;-123.352;2023-03-01T15:22:29;3.60;;;0.73;;
64550;SDS011;50945;44.472;-123.352;2023-03-01T15:24:55;0.30;;;0.30;;
64550;SDS011;50945;44.472;-123.352;2023-03-01T15:27:23;1.35;;;0.52;;
64550;SDS011;50945;44.472;-123.352;2023-03-01T15:29:52;0.98;;;0.70;;
64550;SDS011;50945;44.472;-123.352;2023-03-01T15:32:34;1.17;;;0.63;;
64550;SDS011;50945;44.472;-123.352;2023-03-01T15:37:51;0.57;;;0.57;;
64550;SDS011;50945;44.472;-123.352;2023-03-01T15:40:22;1.17;;;0.73;;
64550;SDS011;50945;44.472;-123.352;2023-03-01T15:42:59;1.13;;;0.50;;
64550;SDS011;50945;44.472;-123.352;2023-03-01T15:45:28;0.60;;;0.40;;
64550;SDS011;50945;44.472;-123.352;2023-03-01T15:48:13;2.13;;;0.63;;
64550;SDS011;50945;44.472;-123.352;2023-03-01T15:50:43;2.10;;;0.60;;
64550;SDS011;50945;44.472;-123.352;2023-03-01T15:53:11;1.08;;;0.40;;
64550;SDS011;50945;44.472;-123.352;2023-03-01T15:55:40;0.75;;;0.75;;
64550;SDS011;50945;44.472;-123.352;2023-03-01T15:58:12;0.75;;;0.60;;
64550;SDS011;50945;44.472;-123.352;2023-03-01T16:00:41;0.40;;;0.40;;
64550;SDS011;50945;44.472;-123.352;2023-03-01T16:05:37;0.40;;;0.40;;
64550;SDS011;50945;44.472;-123.352;2023-03-01T16:08:04;0.63;;;0.60;;
64550;SDS011;50945;44.472;-123.352;2023-03-01T16:10:32;0.40;;;0.40;;
64550;SDS011;50945;44.472;-123.352;2023-03-01T16:12:59;0.95;;;0.82;;
64550;SDS011;50945;44.472;-123.352;2023-03-01T16:15:26;0.57;;;0.52;;
64550;SDS011;50945;44.472;-123.352;2023-03-01T16:17:57;0.22;;;0.22;;
64550;SDS011;50945;44.472;-123.352;2023-03-01T16:20:24;0.98;;;0.77;;
64550;SDS011;50945;44.472;-123.352;2023-03-01T16:22:51;1.73;;;0.95;;
64550;SDS011;50945;44.472;-123.352;2023-03-01T16:25:19;0.80;;;0.80;;
64550;SDS011;50945;44.472;-123.352;2023-03-01T16:27:46;1.55;;;1.40;;
64550;SDS011;50945;44.472;-123.352;2023-03-01T16:30:16;0.65;;;0.65;;
64550;SDS011;50945;44.472;-123.352;2023-03-01T16:32:45;0.65;;;0.65;;
64550;SDS011;50945;44.472;-123.352;2023-03-01T16:35:13;1.13;;;0.98;;
64550;SDS011;50945;44.472;-123.352;2023-03-01T16:37:42;0.93;;;0.40;;
64550;SDS011;50945;44.472;-123.352;2023-03-01T16:40:18;0.75;;;0.75;;
64550;SDS011;50945;44.472;-123.352;2023-03-01T16:42:52;1.08;;;0.68;;
64550;SDS011;50945;44.472;-123.352;2023-03-01T16:45:24;1.80;;;0.82;;
64550;SDS011;50945;44.472;-123.352;2023-03-01T16:47:51;3.20;;;1.30;;
64550;SDS011;50945;44.472;-123.352;2023-03-01T16:50:18;1.15;;;1.00;;
64550;SDS011;50945;44.472;-123.352;2023-03-01T16:52:45;1.08;;;0.70;;
64550;SDS011;50945;44.472;-123.352;2023-03-01T16:55:11;2.92;;;1.17;;
64550;SDS011;50945;44.472;-123.352;2023-03-01T16:57:38;0.70;;;0.70;;
64550;SDS011;50945;44.472;-123.352;2023-03-01T17:00:05;1.60;;;0.60;;
64550;SDS011;50945;44.472;-123.352;2023-03-01T17:02:35;1.80;;;0.93;;
64550;SDS011;50945;44.472;-123.352;2023-03-01T17:05:01;2.13;;;0.70;;